QFO weather

Duxford Aerodrome
Duxford, England, United Kingdom

Public forecast

Using degrees Celsius for public forecast. Weather courtesy of forecast.io.

Closest aviation weather report (METAR) to Duxford Aerodrome

Closest report is Cambridge Airport, 7.0 nm (13.0 km) NNE. Retrieved 2019/10/18 10:20 UTC (5 minutes ago):

EGSC 181020Z 22011KT 9999 FEW020 13/09 Q0998

Closest aviation forecast (TAF) to Duxford Aerodrome

Closest forecast is London Stansted Airport, 12.9 nm (23.9 km) SSE. Retrieved 2019/10/18 06:00 UTC (4 hours ago):

TAF EGSS 180506Z 1806/1912 22009KT 9999 SCT025 TEMPO 1811/1821 7000 SHRA TEMPO 1812/1818 22018G28KT PROB30 TEMPO 1812/1818 4000 +SHRA BKN014 BKN020CB PROB40 1901/1909 5000 BR